Airport ID:K2O1
Update Time (UTC):26/01/2022 17:02
Wind Speed (Knots):1
Wind Direction (Magnetic):140
Temperature (°C):-4
Dew Point (°C):-6
Humidity (%):83
Altimeter (inHg):30.29
Density Altitude (Feet):
Visibility (Miles):8
Clouds (Hundreds of feet):***
Present Weather:
METAR:METAR K2O1 261700Z AUTO 00000KT 9SM M04/M06 A3029 RMK A01

The data displayed is for advisory purposes only and is not to be used for flight planning or operations.